sensor_id;sensor_type;location;lat;lon;timestamp;temperature;humidity
43089;DHT22;28709;52.030;5.652;2023-11-21T00:01:17;7.90;99.90
43089;DHT22;28709;52.030;5.652;2023-11-21T00:03:43;7.90;99.90
43089;DHT22;28709;52.030;5.652;2023-11-21T00:06:09;7.80;99.90
43089;DHT22;28709;52.030;5.652;2023-11-21T00:08:36;7.80;99.90
43089;DHT22;28709;52.030;5.652;2023-11-21T00:11:02;7.70;99.90
43089;DHT22;28709;52.030;5.652;2023-11-21T00:13:28;7.70;99.90
43089;DHT22;28709;52.030;5.652;2023-11-21T00:15:53;7.70;99.90
43089;DHT22;28709;52.030;5.652;2023-11-21T00:18:19;7.70;99.90
43089;DHT22;28709;52.030;5.652;2023-11-21T00:20:44;7.70;99.90
43089;DHT22;28709;52.030;5.652;2023-11-21T00:23:10;7.70;99.90
43089;DHT22;28709;52.030;5.652;2023-11-21T00:25:36;7.60;99.90
43089;DHT22;28709;52.030;5.652;2023-11-21T00:28:01;7.60;99.90
43089;DHT22;28709;52.030;5.652;2023-11-21T00:30:28;7.60;99.90
43089;DHT22;28709;52.030;5.652;2023-11-21T00:32:54;7.50;99.90
43089;DHT22;28709;52.030;5.652;2023-11-21T00:35:20;7.50;99.90
43089;DHT22;28709;52.030;5.652;2023-11-21T00:37:45;7.50;99.90
43089;DHT22;28709;52.030;5.652;2023-11-21T00:40:12;7.40;99.90
43089;DHT22;28709;52.030;5.652;2023-11-21T00:42:39;7.40;99.90
43089;DHT22;28709;52.030;5.652;2023-11-21T00:45:05;7.30;99.90
43089;DHT22;28709;52.030;5.652;2023-11-21T00:47:31;7.30;99.90
43089;DHT22;28709;52.030;5.652;2023-11-21T00:49:57;7.30;99.90
43089;DHT22;28709;52.030;5.652;2023-11-21T00:52:22;7.30;99.90
43089;DHT22;28709;52.030;5.652;2023-11-21T00:54:48;7.20;99.90
43089;DHT22;28709;52.030;5.652;2023-11-21T00:57:15;7.20;99.90
43089;DHT22;28709;52.030;5.652;2023-11-21T00:59:40;7.20;99.90
43089;DHT22;28709;52.030;5.652;2023-11-21T01:02:06;7.20;99.90
43089;DHT22;28709;52.030;5.652;2023-11-21T01:04:35;7.10;99.90
43089;DHT22;28709;52.030;5.652;2023-11-21T01:07:01;7.10;99.90
43089;DHT22;28709;52.030;5.652;2023-11-21T01:09:26;7.10;99.90
43089;DHT22;28709;52.030;5.652;2023-11-21T01:11:53;7.10;99.90
43089;DHT22;28709;52.030;5.652;2023-11-21T01:14:19;7.10;99.90
43089;DHT22;28709;52.030;5.652;2023-11-21T01:16:44;7.10;99.90
43089;DHT22;28709;52.030;5.652;2023-11-21T01:19:11;7.10;99.90
43089;DHT22;28709;52.030;5.652;2023-11-21T01:21:36;7.10;99.90
43089;DHT22;28709;52.030;5.652;2023-11-21T01:24:02;7.10;99.90
43089;DHT22;28709;52.030;5.652;2023-11-21T01:26:28;7.20;99.90
43089;DHT22;28709;52.030;5.652;2023-11-21T01:28:54;7.20;99.90
43089;DHT22;28709;52.030;5.652;2023-11-21T01:31:20;7.20;99.90
43089;DHT22;28709;52.030;5.652;2023-11-21T01:33:46;7.20;99.90
43089;DHT22;28709;52.030;5.652;2023-11-21T01:36:11;7.20;99.90
43089;DHT22;28709;52.030;5.652;2023-11-21T01:38:37;7.20;99.90
43089;DHT22;28709;52.030;5.652;2023-11-21T01:41:03;7.30;99.90
43089;DHT22;28709;52.030;5.652;2023-11-21T01:43:29;7.30;99.90
43089;DHT22;28709;52.030;5.652;2023-11-21T01:45:57;7.30;99.90
43089;DHT22;28709;52.030;5.652;2023-11-21T01:48:24;7.30;99.90
43089;DHT22;28709;52.030;5.652;2023-11-21T01:50:50;7.20;99.90
43089;DHT22;28709;52.030;5.652;2023-11-21T01:53:16;7.30;99.90
43089;DHT22;28709;52.030;5.652;2023-11-21T01:55:42;7.20;99.90
43089;DHT22;28709;52.030;5.652;2023-11-21T01:58:09;7.20;99.90
43089;DHT22;28709;52.030;5.652;2023-11-21T02:00:36;7.20;99.90
43089;DHT22;28709;52.030;5.652;2023-11-21T02:03:04;7.20;99.90
43089;DHT22;28709;52.030;5.652;2023-11-21T02:05:29;7.20;99.90
43089;DHT22;28709;52.030;5.652;2023-11-21T02:07:55;7.20;99.90
43089;DHT22;28709;52.030;5.652;2023-11-21T02:10:22;7.20;99.90
43089;DHT22;28709;52.030;5.652;2023-11-21T02:12:50;7.20;99.90
43089;DHT22;28709;52.030;5.652;2023-11-21T02:15:17;7.30;99.90
43089;DHT22;28709;52.030;5.652;2023-11-21T02:17:49;7.30;99.90
43089;DHT22;28709;52.030;5.652;2023-11-21T02:20:17;7.30;99.90
43089;DHT22;28709;52.030;5.652;2023-11-21T02:22:51;7.30;99.90
43089;DHT22;28709;52.030;5.652;2023-11-21T02:25:28;7.40;99.90
43089;DHT22;28709;52.030;5.652;2023-11-21T02:27:58;7.40;99.90
43089;DHT22;28709;52.030;5.652;2023-11-21T02:30:24;7.40;99.90
43089;DHT22;28709;52.030;5.652;2023-11-21T02:33:02;7.40;99.90
43089;DHT22;28709;52.030;5.652;2023-11-21T02:35:28;7.50;99.90
43089;DHT22;28709;52.030;5.652;2023-11-21T02:37:54;7.50;99.90
43089;DHT22;28709;52.030;5.652;2023-11-21T02:40:20;7.50;99.90
43089;DHT22;28709;52.030;5.652;2023-11-21T02:42:49;7.50;99.90
43089;DHT22;28709;52.030;5.652;2023-11-21T02:45:19;7.50;99.90
43089;DHT22;28709;52.030;5.652;2023-11-21T02:47:46;7.60;99.90
43089;DHT22;28709;52.030;5.652;2023-11-21T02:50:12;7.60;99.90
43089;DHT22;28709;52.030;5.652;2023-11-21T02:52:39;7.60;99.90
43089;DHT22;28709;52.030;5.652;2023-11-21T02:55:06;7.70;99.90
43089;DHT22;28709;52.030;5.652;2023-11-21T02:57:34;7.70;99.90
43089;DHT22;28709;52.030;5.652;2023-11-21T03:00:00;7.70;99.90
43089;DHT22;28709;52.030;5.652;2023-11-21T03:02:25;7.70;99.90
43089;DHT22;28709;52.030;5.652;2023-11-21T03:04:51;7.70;99.90
43089;DHT22;28709;52.030;5.652;2023-11-21T03:07:17;7.70;99.90
43089;DHT22;28709;52.030;5.652;2023-11-21T03:09:47;7.70;99.90
43089;DHT22;28709;52.030;5.652;2023-11-21T03:12:13;7.70;99.90
43089;DHT22;28709;52.030;5.652;2023-11-21T03:14:41;7.70;99.90
43089;DHT22;28709;52.030;5.652;2023-11-21T03:17:07;7.80;99.90
43089;DHT22;28709;52.030;5.652;2023-11-21T03:19:32;7.80;99.90
43089;DHT22;28709;52.030;5.652;2023-11-21T03:21:58;7.80;99.90
43089;DHT22;28709;52.030;5.652;2023-11-21T03:24:24;7.80;99.90
43089;DHT22;28709;52.030;5.652;2023-11-21T03:26:50;7.80;99.90
43089;DHT22;28709;52.030;5.652;2023-11-21T03:29:16;7.80;99.90
43089;DHT22;28709;52.030;5.652;2023-11-21T03:31:42;7.90;99.90
43089;DHT22;28709;52.030;5.652;2023-11-21T03:34:15;7.90;99.90
43089;DHT22;28709;52.030;5.652;2023-11-21T03:36:40;7.90;99.90
43089;DHT22;28709;52.030;5.652;2023-11-21T03:39:07;7.90;99.90
43089;DHT22;28709;52.030;5.652;2023-11-21T03:41:32;7.90;99.90
43089;DHT22;28709;52.030;5.652;2023-11-21T03:43:59;7.90;99.90
43089;DHT22;28709;52.030;5.652;2023-11-21T03:46:24;7.90;99.90
43089;DHT22;28709;52.030;5.652;2023-11-21T03:48:52;7.90;99.90
43089;DHT22;28709;52.030;5.652;2023-11-21T03:51:17;8.00;99.90
43089;DHT22;28709;52.030;5.652;2023-11-21T03:53:43;8.00;99.90
43089;DHT22;28709;52.030;5.652;2023-11-21T03:56:09;8.00;99.90
43089;DHT22;28709;52.030;5.652;2023-11-21T03:58:35;8.00;99.90
43089;DHT22;28709;52.030;5.652;2023-11-21T04:01:00;8.00;99.90
43089;DHT22;28709;52.030;5.652;2023-11-21T04:03:27;8.10;99.90
43089;DHT22;28709;52.030;5.652;2023-11-21T04:05:52;8.10;99.90
43089;DHT22;28709;52.030;5.652;2023-11-21T04:08:18;8.10;99.90
43089;DHT22;28709;52.030;5.652;2023-11-21T04:10:43;8.10;99.90
43089;DHT22;28709;52.030;5.652;2023-11-21T04:13:09;8.10;99.90
43089;DHT22;28709;52.030;5.652;2023-11-21T04:15:35;8.00;99.90
43089;DHT22;28709;52.030;5.652;2023-11-21T04:18:01;8.00;99.90
43089;DHT22;28709;52.030;5.652;2023-11-21T04:20:27;8.00;99.90
43089;DHT22;28709;52.030;5.652;2023-11-21T04:22:52;8.10;99.90
43089;DHT22;28709;52.030;5.652;2023-11-21T04:25:18;8.10;99.90
43089;DHT22;28709;52.030;5.652;2023-11-21T04:27:44;8.20;99.90
43089;DHT22;28709;52.030;5.652;2023-11-21T04:30:11;8.20;99.90
43089;DHT22;28709;52.030;5.652;2023-11-21T04:32:37;8.20;99.90
43089;DHT22;28709;52.030;5.652;2023-11-21T04:35:04;8.30;99.90
43089;DHT22;28709;52.030;5.652;2023-11-21T04:37:30;8.30;99.90
43089;DHT22;28709;52.030;5.652;2023-11-21T04:39:56;8.40;99.90
43089;DHT22;28709;52.030;5.652;2023-11-21T04:42:21;8.30;99.90
43089;DHT22;28709;52.030;5.652;2023-11-21T04:44:48;8.40;99.90
43089;DHT22;28709;52.030;5.652;2023-11-21T04:47:14;8.40;99.90
43089;DHT22;28709;52.030;5.652;2023-11-21T04:49:42;8.40;99.90
43089;DHT22;28709;52.030;5.652;2023-11-21T04:52:08;8.40;99.90
43089;DHT22;28709;52.030;5.652;2023-11-21T04:54:35;8.40;99.90
43089;DHT22;28709;52.030;5.652;2023-11-21T04:57:01;8.40;99.90
43089;DHT22;28709;52.030;5.652;2023-11-21T04:59:27;8.40;99.90
43089;DHT22;28709;52.030;5.652;2023-11-21T05:01:53;8.50;99.90
43089;DHT22;28709;52.030;5.652;2023-11-21T05:04:19;8.50;99.90
43089;DHT22;28709;52.030;5.652;2023-11-21T05:06:47;8.60;99.90
43089;DHT22;28709;52.030;5.652;2023-11-21T05:09:13;8.60;99.90
43089;DHT22;28709;52.030;5.652;2023-11-21T05:11:38;8.60;99.90
43089;DHT22;28709;52.030;5.652;2023-11-21T05:14:06;8.60;99.90
43089;DHT22;28709;52.030;5.652;2023-11-21T05:16:32;8.60;99.90
43089;DHT22;28709;52.030;5.652;2023-11-21T05:18:59;8.70;99.90
43089;DHT22;28709;52.030;5.652;2023-11-21T05:21:26;8.70;99.90
43089;DHT22;28709;52.030;5.652;2023-11-21T05:23:52;8.70;99.90
43089;DHT22;28709;52.030;5.652;2023-11-21T05:26:18;8.70;99.90
43089;DHT22;28709;52.030;5.652;2023-11-21T05:28:43;8.70;99.90
43089;DHT22;28709;52.030;5.652;2023-11-21T05:31:09;8.70;99.90
43089;DHT22;28709;52.030;5.652;2023-11-21T05:33:36;8.80;99.90
43089;DHT22;28709;52.030;5.652;2023-11-21T05:36:02;8.70;99.90
43089;DHT22;28709;52.030;5.652;2023-11-21T05:38:27;8.70;99.90
43089;DHT22;28709;52.030;5.652;2023-11-21T05:40:53;8.80;99.90
43089;DHT22;28709;52.030;5.652;2023-11-21T05:43:19;8.80;99.90
43089;DHT22;28709;52.030;5.652;2023-11-21T05:45:45;8.80;99.90
43089;DHT22;28709;52.030;5.652;2023-11-21T05:48:11;8.80;99.90
43089;DHT22;28709;52.030;5.652;2023-11-21T05:50:36;8.80;99.90
43089;DHT22;28709;52.030;5.652;2023-11-21T05:53:03;8.80;99.90
43089;DHT22;28709;52.030;5.652;2023-11-21T05:55:29;8.80;99.90
43089;DHT22;28709;52.030;5.652;2023-11-21T05:57:55;8.90;99.90
43089;DHT22;28709;52.030;5.652;2023-11-21T06:00:20;8.90;99.90
43089;DHT22;28709;52.030;5.652;2023-11-21T06:02:52;8.90;99.90
43089;DHT22;28709;52.030;5.652;2023-11-21T06:05:22;8.90;99.90
43089;DHT22;28709;52.030;5.652;2023-11-21T06:07:49;8.90;99.90
43089;DHT22;28709;52.030;5.652;2023-11-21T06:10:15;8.90;99.90
43089;DHT22;28709;52.030;5.652;2023-11-21T06:12:43;8.90;99.90
43089;DHT22;28709;52.030;5.652;2023-11-21T06:15:10;8.90;99.90
43089;DHT22;28709;52.030;5.652;2023-11-21T06:17:39;8.90;99.90
43089;DHT22;28709;52.030;5.652;2023-11-21T06:20:09;9.00;99.90
43089;DHT22;28709;52.030;5.652;2023-11-21T06:22:45;8.90;99.90
43089;DHT22;28709;52.030;5.652;2023-11-21T06:25:12;8.90;99.90
43089;DHT22;28709;52.030;5.652;2023-11-21T06:27:42;9.00;99.90
43089;DHT22;28709;52.030;5.652;2023-11-21T06:30:09;9.00;99.90
43089;DHT22;28709;52.030;5.652;2023-11-21T06:32:38;9.00;99.90
43089;DHT22;28709;52.030;5.652;2023-11-21T06:35:05;9.00;99.90
43089;DHT22;28709;52.030;5.652;2023-11-21T06:37:32;9.00;99.90
43089;DHT22;28709;52.030;5.652;2023-11-21T06:39:58;9.00;99.90
43089;DHT22;28709;52.030;5.652;2023-11-21T06:42:25;9.00;99.90
43089;DHT22;28709;52.030;5.652;2023-11-21T06:44:51;9.10;99.90
43089;DHT22;28709;52.030;5.652;2023-11-21T06:47:25;9.10;99.90
43089;DHT22;28709;52.030;5.652;2023-11-21T06:49:52;9.10;99.90
43089;DHT22;28709;52.030;5.652;2023-11-21T06:52:18;9.10;99.90
43089;DHT22;28709;52.030;5.652;2023-11-21T06:54:44;9.20;99.90
43089;DHT22;28709;52.030;5.652;2023-11-21T06:57:10;9.20;99.90
43089;DHT22;28709;52.030;5.652;2023-11-21T06:59:36;9.20;99.90
43089;DHT22;28709;52.030;5.652;2023-11-21T07:02:02;9.20;99.90
43089;DHT22;28709;52.030;5.652;2023-11-21T07:04:27;9.30;99.90
43089;DHT22;28709;52.030;5.652;2023-11-21T07:06:54;9.20;99.90
43089;DHT22;28709;52.030;5.652;2023-11-21T07:09:20;9.30;99.90
43089;DHT22;28709;52.030;5.652;2023-11-21T07:11:49;9.30;99.90
43089;DHT22;28709;52.030;5.652;2023-11-21T07:14:15;9.40;99.90
43089;DHT22;28709;52.030;5.652;2023-11-21T07:16:42;9.40;99.90
43089;DHT22;28709;52.030;5.652;2023-11-21T07:19:08;9.40;99.90
43089;DHT22;28709;52.030;5.652;2023-11-21T07:21:34;9.40;99.90
43089;DHT22;28709;52.030;5.652;2023-11-21T07:24:05;9.40;99.90
43089;DHT22;28709;52.030;5.652;2023-11-21T07:26:32;9.50;99.90
43089;DHT22;28709;52.030;5.652;2023-11-21T07:28:59;9.50;99.90
43089;DHT22;28709;52.030;5.652;2023-11-21T07:31:25;9.50;99.90
43089;DHT22;28709;52.030;5.652;2023-11-21T07:33:51;9.60;99.90
43089;DHT22;28709;52.030;5.652;2023-11-21T07:36:17;9.60;99.90
43089;DHT22;28709;52.030;5.652;2023-11-21T07:38:44;9.60;99.90
43089;DHT22;28709;52.030;5.652;2023-11-21T07:41:10;9.60;99.90
43089;DHT22;28709;52.030;5.652;2023-11-21T07:43:37;9.50;99.90
43089;DHT22;28709;52.030;5.652;2023-11-21T07:46:03;9.50;99.90
43089;DHT22;28709;52.030;5.652;2023-11-21T07:48:30;9.40;99.90
43089;DHT22;28709;52.030;5.652;2023-11-21T07:50:57;9.40;99.90
43089;DHT22;28709;52.030;5.652;2023-11-21T07:53:24;9.30;99.90
43089;DHT22;28709;52.030;5.652;2023-11-21T07:55:51;9.40;99.90
43089;DHT22;28709;52.030;5.652;2023-11-21T07:58:17;9.40;99.90
43089;DHT22;28709;52.030;5.652;2023-11-21T08:00:43;9.40;99.90
43089;DHT22;28709;52.030;5.652;2023-11-21T08:03:09;9.40;99.90
43089;DHT22;28709;52.030;5.652;2023-11-21T08:05:35;9.50;99.90
43089;DHT22;28709;52.030;5.652;2023-11-21T08:08:01;9.50;99.90
43089;DHT22;28709;52.030;5.652;2023-11-21T08:10:26;9.60;99.90
43089;DHT22;28709;52.030;5.652;2023-11-21T08:12:52;9.60;99.90
43089;DHT22;28709;52.030;5.652;2023-11-21T08:15:19;9.70;99.90
43089;DHT22;28709;52.030;5.652;2023-11-21T08:17:46;9.60;99.90
43089;DHT22;28709;52.030;5.652;2023-11-21T08:20:12;9.60;99.90
43089;DHT22;28709;52.030;5.652;2023-11-21T08:22:37;9.60;99.90
43089;DHT22;28709;52.030;5.652;2023-11-21T08:25:06;9.60;99.90
43089;DHT22;28709;52.030;5.652;2023-11-21T08:27:33;9.60;99.90
43089;DHT22;28709;52.030;5.652;2023-11-21T08:30:03;9.70;99.90
43089;DHT22;28709;52.030;5.652;2023-11-21T08:32:29;9.70;99.90
43089;DHT22;28709;52.030;5.652;2023-11-21T08:34:59;9.70;99.90
43089;DHT22;28709;52.030;5.652;2023-11-21T08:37:25;9.80;99.90
43089;DHT22;28709;52.030;5.652;2023-11-21T08:39:52;9.70;99.90
43089;DHT22;28709;52.030;5.652;2023-11-21T08:42:19;9.80;99.90
43089;DHT22;28709;52.030;5.652;2023-11-21T08:44:45;9.80;99.90
43089;DHT22;28709;52.030;5.652;2023-11-21T08:47:11;9.80;99.90
43089;DHT22;28709;52.030;5.652;2023-11-21T08:49:37;9.90;99.90
43089;DHT22;28709;52.030;5.652;2023-11-21T08:52:03;10.00;99.90
43089;DHT22;28709;52.030;5.652;2023-11-21T08:54:30;10.00;99.90
43089;DHT22;28709;52.030;5.652;2023-11-21T08:56:56;10.00;99.90
43089;DHT22;28709;52.030;5.652;2023-11-21T08:59:24;10.00;99.90
43089;DHT22;28709;52.030;5.652;2023-11-21T09:01:49;10.10;99.90
43089;DHT22;28709;52.030;5.652;2023-11-21T09:04:15;10.10;99.90
43089;DHT22;28709;52.030;5.652;2023-11-21T09:06:41;10.10;99.90
43089;DHT22;28709;52.030;5.652;2023-11-21T09:09:06;10.10;99.90
43089;DHT22;28709;52.030;5.652;2023-11-21T09:11:33;10.10;99.90
43089;DHT22;28709;52.030;5.652;2023-11-21T09:13:59;10.10;99.90
43089;DHT22;28709;52.030;5.652;2023-11-21T09:16:25;10.10;99.90
43089;DHT22;28709;52.030;5.652;2023-11-21T09:18:51;10.10;99.90
43089;DHT22;28709;52.030;5.652;2023-11-21T09:21:17;10.10;99.90
43089;DHT22;28709;52.030;5.652;2023-11-21T09:23:44;10.10;99.90
43089;DHT22;28709;52.030;5.652;2023-11-21T09:26:10;10.10;99.90
43089;DHT22;28709;52.030;5.652;2023-11-21T09:28:36;10.10;99.90
43089;DHT22;28709;52.030;5.652;2023-11-21T09:31:06;10.10;99.90
43089;DHT22;28709;52.030;5.652;2023-11-21T09:33:34;10.10;99.90
43089;DHT22;28709;52.030;5.652;2023-11-21T09:36:00;10.20;99.90
43089;DHT22;28709;52.030;5.652;2023-11-21T09:38:26;10.20;99.90
43089;DHT22;28709;52.030;5.652;2023-11-21T09:40:54;10.30;99.90
43089;DHT22;28709;52.030;5.652;2023-11-21T09:43:20;10.30;99.90
43089;DHT22;28709;52.030;5.652;2023-11-21T09:45:51;10.40;99.90
43089;DHT22;28709;52.030;5.652;2023-11-21T09:48:20;10.50;99.90
43089;DHT22;28709;52.030;5.652;2023-11-21T09:50:47;10.60;99.90
43089;DHT22;28709;52.030;5.652;2023-11-21T09:55:43;10.70;99.90
43089;DHT22;28709;52.030;5.652;2023-11-21T09:58:10;10.60;99.90
43089;DHT22;28709;52.030;5.652;2023-11-21T10:00:41;10.60;99.90
43089;DHT22;28709;52.030;5.652;2023-11-21T10:03:07;10.70;99.90
43089;DHT22;28709;52.030;5.652;2023-11-21T10:05:34;10.70;99.90
43089;DHT22;28709;52.030;5.652;2023-11-21T10:08:00;10.70;99.90
43089;DHT22;28709;52.030;5.652;2023-11-21T10:10:27;10.70;99.90
43089;DHT22;28709;52.030;5.652;2023-11-21T10:13:01;10.60;99.90
43089;DHT22;28709;52.030;5.652;2023-11-21T10:15:29;10.60;99.90
43089;DHT22;28709;52.030;5.652;2023-11-21T10:17:56;10.50;99.90
43089;DHT22;28709;52.030;5.652;2023-11-21T10:20:23;10.50;99.90
43089;DHT22;28709;52.030;5.652;2023-11-21T10:22:49;10.50;99.90
43089;DHT22;28709;52.030;5.652;2023-11-21T10:25:15;10.50;99.90
43089;DHT22;28709;52.030;5.652;2023-11-21T10:27:42;10.50;99.90
43089;DHT22;28709;52.030;5.652;2023-11-21T10:30:09;10.40;99.90
43089;DHT22;28709;52.030;5.652;2023-11-21T10:32:42;10.40;99.90
43089;DHT22;28709;52.030;5.652;2023-11-21T10:35:09;10.40;99.90
43089;DHT22;28709;52.030;5.652;2023-11-21T10:37:40;10.30;99.90
43089;DHT22;28709;52.030;5.652;2023-11-21T10:40:08;10.30;99.90
43089;DHT22;28709;52.030;5.652;2023-11-21T10:42:40;10.30;99.90
43089;DHT22;28709;52.030;5.652;2023-11-21T10:45:07;10.30;99.90
43089;DHT22;28709;52.030;5.652;2023-11-21T10:47:41;10.30;99.90
43089;DHT22;28709;52.030;5.652;2023-11-21T10:50:07;10.30;99.90
43089;DHT22;28709;52.030;5.652;2023-11-21T10:52:37;10.30;99.90
43089;DHT22;28709;52.030;5.652;2023-11-21T10:55:16;10.30;99.90
43089;DHT22;28709;52.030;5.652;2023-11-21T10:57:46;10.30;99.90
43089;DHT22;28709;52.030;5.652;2023-11-21T11:00:14;10.30;99.90
43089;DHT22;28709;52.030;5.652;2023-11-21T11:02:41;10.30;99.90
43089;DHT22;28709;52.030;5.652;2023-11-21T11:05:07;10.30;99.90
43089;DHT22;28709;52.030;5.652;2023-11-21T11:07:37;10.30;99.90
43089;DHT22;28709;52.030;5.652;2023-11-21T11:10:06;10.20;99.90
43089;DHT22;28709;52.030;5.652;2023-11-21T11:12:34;10.30;99.90
43089;DHT22;28709;52.030;5.652;2023-11-21T11:15:01;10.30;99.90
43089;DHT22;28709;52.030;5.652;2023-11-21T11:17:28;10.20;99.90
43089;DHT22;28709;52.030;5.652;2023-11-21T11:19:54;10.30;99.90
43089;DHT22;28709;52.030;5.652;2023-11-21T11:22:42;10.30;99.90
43089;DHT22;28709;52.030;5.652;2023-11-21T11:27:54;10.30;99.90
43089;DHT22;28709;52.030;5.652;2023-11-21T11:33:41;10.30;99.90
43089;DHT22;28709;52.030;5.652;2023-11-21T11:38:49;10.40;99.90
43089;DHT22;28709;52.030;5.652;2023-11-21T11:41:25;10.40;99.90
43089;DHT22;28709;52.030;5.652;2023-11-21T11:43:52;10.40;99.90
43089;DHT22;28709;52.030;5.652;2023-11-21T11:46:18;10.50;99.90
43089;DHT22;28709;52.030;5.652;2023-11-21T11:48:47;10.40;99.90
43089;DHT22;28709;52.030;5.652;2023-11-21T11:51:14;10.40;99.90
43089;DHT22;28709;52.030;5.652;2023-11-21T11:53:43;10.30;99.90
43089;DHT22;28709;52.030;5.652;2023-11-21T11:58:52;10.30;99.90
43089;DHT22;28709;52.030;5.652;2023-11-21T12:01:22;10.20;99.90
43089;DHT22;28709;52.030;5.652;2023-11-21T12:06:59;10.20;99.90
43089;DHT22;28709;52.030;5.652;2023-11-21T12:09:26;10.30;99.90
43089;DHT22;28709;52.030;5.652;2023-11-21T12:11:52;10.30;99.90
43089;DHT22;28709;52.030;5.652;2023-11-21T12:14:18;10.30;99.90
43089;DHT22;28709;52.030;5.652;2023-11-21T12:16:44;10.40;99.90
43089;DHT22;28709;52.030;5.652;2023-11-21T12:19:11;10.30;99.90
43089;DHT22;28709;52.030;5.652;2023-11-21T12:21:37;10.40;99.90
43089;DHT22;28709;52.030;5.652;2023-11-21T12:24:03;10.40;99.90
43089;DHT22;28709;52.030;5.652;2023-11-21T12:26:29;10.50;99.90
43089;DHT22;28709;52.030;5.652;2023-11-21T12:28:55;10.50;99.90
43089;DHT22;28709;52.030;5.652;2023-11-21T12:31:23;10.50;99.90
43089;DHT22;28709;52.030;5.652;2023-11-21T12:33:49;10.50;99.90
43089;DHT22;28709;52.030;5.652;2023-11-21T12:36:16;10.40;99.90
43089;DHT22;28709;52.030;5.652;2023-11-21T12:38:42;10.40;99.90
43089;DHT22;28709;52.030;5.652;2023-11-21T12:41:09;10.50;99.90
43089;DHT22;28709;52.030;5.652;2023-11-21T12:43:35;10.50;99.90
43089;DHT22;28709;52.030;5.652;2023-11-21T12:46:20;10.50;99.90
43089;DHT22;28709;52.030;5.652;2023-11-21T12:48:46;10.40;99.90
43089;DHT22;28709;52.030;5.652;2023-11-21T12:51:12;10.40;99.90
43089;DHT22;28709;52.030;5.652;2023-11-21T12:53:42;10.40;99.90
43089;DHT22;28709;52.030;5.652;2023-11-21T12:56:10;10.50;99.90
43089;DHT22;28709;52.030;5.652;2023-11-21T12:58:38;10.50;99.90
43089;DHT22;28709;52.030;5.652;2023-11-21T13:01:07;10.40;99.90
43089;DHT22;28709;52.030;5.652;2023-11-21T13:03:38;10.30;99.90
43089;DHT22;28709;52.030;5.652;2023-11-21T13:06:04;10.30;99.90
43089;DHT22;28709;52.030;5.652;2023-11-21T13:08:30;10.30;99.90
43089;DHT22;28709;52.030;5.652;2023-11-21T13:10:58;10.30;99.90
43089;DHT22;28709;52.030;5.652;2023-11-21T13:13:25;10.40;99.90
43089;DHT22;28709;52.030;5.652;2023-11-21T13:16:00;10.50;99.90
43089;DHT22;28709;52.030;5.652;2023-11-21T13:18:33;10.50;99.90
43089;DHT22;28709;52.030;5.652;2023-11-21T13:21:09;10.60;99.90
43089;DHT22;28709;52.030;5.652;2023-11-21T13:23:39;10.60;99.90
43089;DHT22;28709;52.030;5.652;2023-11-21T13:26:06;10.60;99.90
43089;DHT22;28709;52.030;5.652;2023-11-21T13:28:32;10.60;99.90
43089;DHT22;28709;52.030;5.652;2023-11-21T13:31:03;10.50;99.90
43089;DHT22;28709;52.030;5.652;2023-11-21T13:33:35;10.50;99.90
43089;DHT22;28709;52.030;5.652;2023-11-21T13:36:04;10.50;99.90
43089;DHT22;28709;52.030;5.652;2023-11-21T13:38:33;10.40;99.90
43089;DHT22;28709;52.030;5.652;2023-11-21T13:41:01;10.40;99.90
43089;DHT22;28709;52.030;5.652;2023-11-21T13:43:26;10.50;99.90
43089;DHT22;28709;52.030;5.652;2023-11-21T13:45:54;10.50;99.90
43089;DHT22;28709;52.030;5.652;2023-11-21T13:48:32;10.50;99.90
43089;DHT22;28709;52.030;5.652;2023-11-21T13:51:08;10.50;99.90
43089;DHT22;28709;52.030;5.652;2023-11-21T13:53:41;10.50;99.90
43089;DHT22;28709;52.030;5.652;2023-11-21T13:56:08;10.50;99.90
43089;DHT22;28709;52.030;5.652;2023-11-21T13:58:34;10.50;99.90
43089;DHT22;28709;52.030;5.652;2023-11-21T14:01:17;10.50;99.90
43089;DHT22;28709;52.030;5.652;2023-11-21T14:03:58;10.50;99.90
43089;DHT22;28709;52.030;5.652;2023-11-21T14:06:49;10.50;99.90
43089;DHT22;28709;52.030;5.652;2023-11-21T14:09:19;10.40;99.90
43089;DHT22;28709;52.030;5.652;2023-11-21T14:11:51;10.30;99.90
43089;DHT22;28709;52.030;5.652;2023-11-21T14:14:22;10.30;99.90
43089;DHT22;28709;52.030;5.652;2023-11-21T14:16:49;10.20;99.90
43089;DHT22;28709;52.030;5.652;2023-11-21T14:19:16;10.00;99.90
43089;DHT22;28709;52.030;5.652;2023-11-21T14:21:43;10.00;99.90
43089;DHT22;28709;52.030;5.652;2023-11-21T14:24:09;9.90;99.90
43089;DHT22;28709;52.030;5.652;2023-11-21T14:26:35;9.90;99.90
43089;DHT22;28709;52.030;5.652;2023-11-21T14:29:01;9.90;99.90
43089;DHT22;28709;52.030;5.652;2023-11-21T14:31:26;9.90;99.90
43089;DHT22;28709;52.030;5.652;2023-11-21T14:33:54;9.80;99.90
43089;DHT22;28709;52.030;5.652;2023-11-21T14:36:20;9.90;99.90
43089;DHT22;28709;52.030;5.652;2023-11-21T14:38:45;9.90;99.90
43089;DHT22;28709;52.030;5.652;2023-11-21T14:41:11;9.90;99.90
43089;DHT22;28709;52.030;5.652;2023-11-21T14:43:39;9.80;99.90
43089;DHT22;28709;52.030;5.652;2023-11-21T14:46:05;9.80;99.90
43089;DHT22;28709;52.030;5.652;2023-11-21T14:48:35;9.70;99.90
43089;DHT22;28709;52.030;5.652;2023-11-21T14:51:13;9.60;99.90
43089;DHT22;28709;52.030;5.652;2023-11-21T14:53:53;9.60;99.90
43089;DHT22;28709;52.030;5.652;2023-11-21T14:56:20;9.50;99.90
43089;DHT22;28709;52.030;5.652;2023-11-21T14:58:56;9.40;99.90
43089;DHT22;28709;52.030;5.652;2023-11-21T15:01:25;9.40;99.90
43089;DHT22;28709;52.030;5.652;2023-11-21T15:04:10;9.40;99.90
43089;DHT22;28709;52.030;5.652;2023-11-21T15:06:46;9.40;99.90
43089;DHT22;28709;52.030;5.652;2023-11-21T15:09:13;9.30;99.90
43089;DHT22;28709;52.030;5.652;2023-11-21T15:11:39;9.20;99.90
43089;DHT22;28709;52.030;5.652;2023-11-21T15:14:04;9.20;99.90
43089;DHT22;28709;52.030;5.652;2023-11-21T15:16:34;9.20;99.90
43089;DHT22;28709;52.030;5.652;2023-11-21T15:19:04;9.10;99.90
43089;DHT22;28709;52.030;5.652;2023-11-21T15:21:31;9.10;99.90
43089;DHT22;28709;52.030;5.652;2023-11-21T15:23:57;9.10;99.90
43089;DHT22;28709;52.030;5.652;2023-11-21T15:26:23;9.00;99.90
43089;DHT22;28709;52.030;5.652;2023-11-21T15:28:49;9.00;99.90
43089;DHT22;28709;52.030;5.652;2023-11-21T15:31:14;9.00;99.90
43089;DHT22;28709;52.030;5.652;2023-11-21T15:33:42;9.00;99.90
43089;DHT22;28709;52.030;5.652;2023-11-21T15:36:08;8.90;99.90
43089;DHT22;28709;52.030;5.652;2023-11-21T15:38:36;8.80;99.90
43089;DHT22;28709;52.030;5.652;2023-11-21T15:41:03;8.80;99.90
43089;DHT22;28709;52.030;5.652;2023-11-21T15:43:28;8.80;99.90
43089;DHT22;28709;52.030;5.652;2023-11-21T15:45:54;8.80;99.90
43089;DHT22;28709;52.030;5.652;2023-11-21T15:48:21;8.70;99.90
43089;DHT22;28709;52.030;5.652;2023-11-21T15:50:46;8.70;99.90
43089;DHT22;28709;52.030;5.652;2023-11-21T15:53:13;8.70;99.90
43089;DHT22;28709;52.030;5.652;2023-11-21T15:55:39;8.70;99.90
43089;DHT22;28709;52.030;5.652;2023-11-21T15:58:08;8.60;99.90